sensor_id;sensor_type;location;lat;lon;timestamp;P1;durP1;ratioP1;P2;durP2;ratioP2
10920;SDS011;5513;50.580;8.818;2023-04-25T00:01:58;14.93;;;10.40;;
10920;SDS011;5513;50.580;8.818;2023-04-25T00:04:26;18.60;;;10.50;;
10920;SDS011;5513;50.580;8.818;2023-04-25T00:06:57;17.10;;;10.53;;
10920;SDS011;5513;50.580;8.818;2023-04-25T00:09:25;15.67;;;10.90;;
10920;SDS011;5513;50.580;8.818;2023-04-25T00:11:55;17.03;;;10.70;;
10920;SDS011;5513;50.580;8.818;2023-04-25T00:14:24;15.70;;;10.40;;
10920;SDS011;5513;50.580;8.818;2023-04-25T00:16:52;12.60;;;10.07;;
10920;SDS011;5513;50.580;8.818;2023-04-25T00:19:20;14.33;;;10.33;;
10920;SDS011;5513;50.580;8.818;2023-04-25T00:21:48;16.60;;;9.77;;
10920;SDS011;5513;50.580;8.818;2023-04-25T00:24:16;15.80;;;10.37;;
10920;SDS011;5513;50.580;8.818;2023-04-25T00:26:45;11.83;;;9.40;;
10920;SDS011;5513;50.580;8.818;2023-04-25T00:29:15;13.20;;;9.03;;
10920;SDS011;5513;50.580;8.818;2023-04-25T00:31:43;15.93;;;9.83;;
10920;SDS011;5513;50.580;8.818;2023-04-25T00:34:12;14.40;;;10.03;;
10920;SDS011;5513;50.580;8.818;2023-04-25T00:36:40;10.83;;;8.73;;
10920;SDS011;5513;50.580;8.818;2023-04-25T00:39:08;13.30;;;9.17;;
10920;SDS011;5513;50.580;8.818;2023-04-25T00:41:36;15.17;;;9.43;;
10920;SDS011;5513;50.580;8.818;2023-04-25T00:44:05;14.17;;;8.87;;
10920;SDS011;5513;50.580;8.818;2023-04-25T00:46:34;12.73;;;8.37;;
10920;SDS011;5513;50.580;8.818;2023-04-25T00:49:03;15.10;;;8.97;;
10920;SDS011;5513;50.580;8.818;2023-04-25T00:51:31;14.80;;;8.53;;
10920;SDS011;5513;50.580;8.818;2023-04-25T00:54:00;10.57;;;7.90;;
10920;SDS011;5513;50.580;8.818;2023-04-25T00:56:29;10.87;;;7.67;;
10920;SDS011;5513;50.580;8.818;2023-04-25T00:58:57;13.23;;;8.80;;
10920;SDS011;5513;50.580;8.818;2023-04-25T01:01:25;12.33;;;8.90;;
10920;SDS011;5513;50.580;8.818;2023-04-25T01:03:56;13.40;;;9.13;;
10920;SDS011;5513;50.580;8.818;2023-04-25T01:06:26;15.20;;;8.67;;
10920;SDS011;5513;50.580;8.818;2023-04-25T01:08:55;12.93;;;8.37;;
10920;SDS011;5513;50.580;8.818;2023-04-25T01:11:24;13.13;;;8.30;;
10920;SDS011;5513;50.580;8.818;2023-04-25T01:13:52;13.67;;;8.20;;
10920;SDS011;5513;50.580;8.818;2023-04-25T01:16:20;13.27;;;8.03;;
10920;SDS011;5513;50.580;8.818;2023-04-25T01:18:50;14.27;;;7.20;;
10920;SDS011;5513;50.580;8.818;2023-04-25T01:21:20;9.03;;;7.00;;
10920;SDS011;5513;50.580;8.818;2023-04-25T01:23:48;11.07;;;6.70;;
10920;SDS011;5513;50.580;8.818;2023-04-25T01:26:17;11.47;;;7.30;;
10920;SDS011;5513;50.580;8.818;2023-04-25T01:28:47;12.93;;;7.10;;
10920;SDS011;5513;50.580;8.818;2023-04-25T01:31:16;9.83;;;6.27;;
10920;SDS011;5513;50.580;8.818;2023-04-25T01:33:45;10.60;;;6.77;;
10920;SDS011;5513;50.580;8.818;2023-04-25T01:36:15;11.07;;;6.87;;
10920;SDS011;5513;50.580;8.818;2023-04-25T01:38:46;10.17;;;6.70;;
10920;SDS011;5513;50.580;8.818;2023-04-25T01:41:15;10.13;;;5.93;;
10920;SDS011;5513;50.580;8.818;2023-04-25T01:43:44;9.80;;;6.93;;
10920;SDS011;5513;50.580;8.818;2023-04-25T01:46:12;9.87;;;5.50;;
10920;SDS011;5513;50.580;8.818;2023-04-25T01:48:41;6.30;;;5.00;;
10920;SDS011;5513;50.580;8.818;2023-04-25T01:51:09;10.23;;;5.10;;
10920;SDS011;5513;50.580;8.818;2023-04-25T01:53:37;13.13;;;5.57;;
10920;SDS011;5513;50.580;8.818;2023-04-25T01:56:07;8.53;;;5.10;;
10920;SDS011;5513;50.580;8.818;2023-04-25T01:58:36;8.37;;;5.03;;
10920;SDS011;5513;50.580;8.818;2023-04-25T02:01:04;6.47;;;4.00;;
10920;SDS011;5513;50.580;8.818;2023-04-25T02:03:32;9.53;;;4.63;;
10920;SDS011;5513;50.580;8.818;2023-04-25T02:06:02;6.97;;;4.23;;
10920;SDS011;5513;50.580;8.818;2023-04-25T02:08:30;7.97;;;4.50;;
10920;SDS011;5513;50.580;8.818;2023-04-25T02:10:58;8.33;;;4.30;;
10920;SDS011;5513;50.580;8.818;2023-04-25T02:13:28;6.33;;;3.77;;
10920;SDS011;5513;50.580;8.818;2023-04-25T02:15:56;8.87;;;4.47;;
10920;SDS011;5513;50.580;8.818;2023-04-25T02:18:25;7.70;;;4.33;;
10920;SDS011;5513;50.580;8.818;2023-04-25T02:20:53;8.43;;;4.53;;
10920;SDS011;5513;50.580;8.818;2023-04-25T02:23:21;8.90;;;4.10;;
10920;SDS011;5513;50.580;8.818;2023-04-25T02:25:50;9.37;;;4.13;;
10920;SDS011;5513;50.580;8.818;2023-04-25T02:28:19;9.37;;;4.20;;
10920;SDS011;5513;50.580;8.818;2023-04-25T02:30:49;7.67;;;4.63;;
10920;SDS011;5513;50.580;8.818;2023-04-25T02:33:17;7.83;;;4.23;;
10920;SDS011;5513;50.580;8.818;2023-04-25T02:35:47;7.70;;;4.30;;
10920;SDS011;5513;50.580;8.818;2023-04-25T02:38:15;7.73;;;4.20;;
10920;SDS011;5513;50.580;8.818;2023-04-25T02:40:43;9.33;;;4.60;;
10920;SDS011;5513;50.580;8.818;2023-04-25T02:43:12;9.57;;;5.20;;
10920;SDS011;5513;50.580;8.818;2023-04-25T02:45:40;10.73;;;4.60;;
10920;SDS011;5513;50.580;8.818;2023-04-25T02:48:10;8.13;;;4.60;;
10920;SDS011;5513;50.580;8.818;2023-04-25T02:50:38;10.97;;;4.60;;
10920;SDS011;5513;50.580;8.818;2023-04-25T02:53:06;7.53;;;4.50;;
10920;SDS011;5513;50.580;8.818;2023-04-25T02:55:34;9.10;;;4.77;;
10920;SDS011;5513;50.580;8.818;2023-04-25T02:58:02;9.63;;;4.63;;
10920;SDS011;5513;50.580;8.818;2023-04-25T03:00:31;8.40;;;4.13;;
10920;SDS011;5513;50.580;8.818;2023-04-25T03:02:59;8.23;;;3.97;;
10920;SDS011;5513;50.580;8.818;2023-04-25T03:05:29;9.70;;;4.77;;
10920;SDS011;5513;50.580;8.818;2023-04-25T03:07:57;8.70;;;4.30;;
10920;SDS011;5513;50.580;8.818;2023-04-25T03:10:26;10.53;;;4.20;;
10920;SDS011;5513;50.580;8.818;2023-04-25T03:12:54;9.37;;;4.43;;
10920;SDS011;5513;50.580;8.818;2023-04-25T03:15:22;12.27;;;4.73;;
10920;SDS011;5513;50.580;8.818;2023-04-25T03:17:50;10.87;;;4.47;;
10920;SDS011;5513;50.580;8.818;2023-04-25T03:20:19;10.43;;;5.13;;
10920;SDS011;5513;50.580;8.818;2023-04-25T03:22:50;11.77;;;4.33;;
10920;SDS011;5513;50.580;8.818;2023-04-25T03:25:18;13.90;;;4.80;;
10920;SDS011;5513;50.580;8.818;2023-04-25T03:27:47;12.13;;;5.13;;
10920;SDS011;5513;50.580;8.818;2023-04-25T03:30:15;10.77;;;4.33;;
10920;SDS011;5513;50.580;8.818;2023-04-25T03:32:43;9.97;;;5.07;;
10920;SDS011;5513;50.580;8.818;2023-04-25T03:35:12;8.37;;;4.50;;
10920;SDS011;5513;50.580;8.818;2023-04-25T03:37:40;11.07;;;4.43;;
10920;SDS011;5513;50.580;8.818;2023-04-25T03:40:13;10.50;;;4.60;;
10920;SDS011;5513;50.580;8.818;2023-04-25T03:42:41;10.10;;;4.10;;
10920;SDS011;5513;50.580;8.818;2023-04-25T03:45:10;8.83;;;4.17;;
10920;SDS011;5513;50.580;8.818;2023-04-25T03:47:38;11.00;;;4.57;;
10920;SDS011;5513;50.580;8.818;2023-04-25T03:50:08;8.23;;;4.93;;
10920;SDS011;5513;50.580;8.818;2023-04-25T03:52:36;10.33;;;4.53;;
10920;SDS011;5513;50.580;8.818;2023-04-25T03:55:05;7.33;;;4.63;;
10920;SDS011;5513;50.580;8.818;2023-04-25T03:57:35;7.77;;;3.93;;
10920;SDS011;5513;50.580;8.818;2023-04-25T04:00:04;9.07;;;3.70;;
10920;SDS011;5513;50.580;8.818;2023-04-25T04:02:34;11.77;;;4.27;;
10920;SDS011;5513;50.580;8.818;2023-04-25T04:05:04;7.97;;;3.93;;
10920;SDS011;5513;50.580;8.818;2023-04-25T04:07:33;8.13;;;4.10;;
10920;SDS011;5513;50.580;8.818;2023-04-25T04:10:06;8.73;;;4.27;;
10920;SDS011;5513;50.580;8.818;2023-04-25T04:12:36;10.63;;;4.77;;
10920;SDS011;5513;50.580;8.818;2023-04-25T04:15:05;8.70;;;5.03;;
10920;SDS011;5513;50.580;8.818;2023-04-25T04:17:34;8.57;;;3.93;;
10920;SDS011;5513;50.580;8.818;2023-04-25T04:20:02;8.90;;;3.63;;
10920;SDS011;5513;50.580;8.818;2023-04-25T04:22:32;7.97;;;4.30;;
10920;SDS011;5513;50.580;8.818;2023-04-25T04:25:00;8.90;;;3.60;;
10920;SDS011;5513;50.580;8.818;2023-04-25T04:27:28;6.20;;;3.23;;
10920;SDS011;5513;50.580;8.818;2023-04-25T04:29:58;7.73;;;3.90;;
10920;SDS011;5513;50.580;8.818;2023-04-25T04:32:27;8.13;;;3.90;;
10920;SDS011;5513;50.580;8.818;2023-04-25T04:34:56;8.57;;;3.90;;
10920;SDS011;5513;50.580;8.818;2023-04-25T04:37:26;8.07;;;4.17;;
10920;SDS011;5513;50.580;8.818;2023-04-25T04:39:54;7.63;;;3.87;;
10920;SDS011;5513;50.580;8.818;2023-04-25T04:42:22;8.63;;;4.03;;
10920;SDS011;5513;50.580;8.818;2023-04-25T04:44:51;6.30;;;3.80;;
10920;SDS011;5513;50.580;8.818;2023-04-25T04:47:22;6.10;;;3.83;;
10920;SDS011;5513;50.580;8.818;2023-04-25T04:49:52;8.13;;;3.87;;
10920;SDS011;5513;50.580;8.818;2023-04-25T04:52:20;6.63;;;3.57;;
10920;SDS011;5513;50.580;8.818;2023-04-25T04:54:48;6.80;;;3.97;;
10920;SDS011;5513;50.580;8.818;2023-04-25T04:57:16;9.90;;;4.13;;
10920;SDS011;5513;50.580;8.818;2023-04-25T04:59:44;6.03;;;3.60;;
10920;SDS011;5513;50.580;8.818;2023-04-25T05:02:13;6.67;;;3.87;;
10920;SDS011;5513;50.580;8.818;2023-04-25T05:04:42;7.80;;;4.13;;
10920;SDS011;5513;50.580;8.818;2023-04-25T05:07:11;6.03;;;4.37;;
10920;SDS011;5513;50.580;8.818;2023-04-25T05:09:40;7.17;;;4.33;;
10920;SDS011;5513;50.580;8.818;2023-04-25T05:12:08;7.17;;;4.10;;
10920;SDS011;5513;50.580;8.818;2023-04-25T05:14:36;10.03;;;4.40;;
10920;SDS011;5513;50.580;8.818;2023-04-25T05:17:04;8.17;;;4.20;;
10920;SDS011;5513;50.580;8.818;2023-04-25T05:19:34;6.93;;;4.17;;
10920;SDS011;5513;50.580;8.818;2023-04-25T05:22:04;7.80;;;4.60;;
10920;SDS011;5513;50.580;8.818;2023-04-25T05:24:32;8.87;;;4.43;;
10920;SDS011;5513;50.580;8.818;2023-04-25T05:27:01;8.80;;;4.23;;
10920;SDS011;5513;50.580;8.818;2023-04-25T05:29:29;9.37;;;4.40;;
10920;SDS011;5513;50.580;8.818;2023-04-25T05:31:57;11.67;;;3.90;;
10920;SDS011;5513;50.580;8.818;2023-04-25T05:34:25;9.67;;;4.73;;
10920;SDS011;5513;50.580;8.818;2023-04-25T05:36:53;7.13;;;4.13;;
10920;SDS011;5513;50.580;8.818;2023-04-25T05:39:23;9.10;;;4.40;;
10920;SDS011;5513;50.580;8.818;2023-04-25T05:41:51;8.20;;;4.87;;
10920;SDS011;5513;50.580;8.818;2023-04-25T05:44:19;7.87;;;4.20;;
10920;SDS011;5513;50.580;8.818;2023-04-25T05:46:47;6.73;;;4.30;;
10920;SDS011;5513;50.580;8.818;2023-04-25T05:49:16;6.67;;;4.30;;
10920;SDS011;5513;50.580;8.818;2023-04-25T05:51:45;12.50;;;4.97;;
10920;SDS011;5513;50.580;8.818;2023-04-25T05:54:13;10.63;;;4.63;;
10920;SDS011;5513;50.580;8.818;2023-04-25T05:56:43;11.03;;;4.60;;
10920;SDS011;5513;50.580;8.818;2023-04-25T05:59:11;8.33;;;4.10;;
10920;SDS011;5513;50.580;8.818;2023-04-25T06:01:39;7.13;;;4.00;;
10920;SDS011;5513;50.580;8.818;2023-04-25T06:04:07;7.33;;;4.13;;
10920;SDS011;5513;50.580;8.818;2023-04-25T06:06:36;8.90;;;4.87;;
10920;SDS011;5513;50.580;8.818;2023-04-25T06:09:04;7.17;;;4.53;;
10920;SDS011;5513;50.580;8.818;2023-04-25T06:11:32;8.70;;;4.03;;
10920;SDS011;5513;50.580;8.818;2023-04-25T06:14:02;10.60;;;4.77;;
10920;SDS011;5513;50.580;8.818;2023-04-25T06:16:31;8.77;;;4.70;;
10920;SDS011;5513;50.580;8.818;2023-04-25T06:18:59;7.07;;;4.50;;
10920;SDS011;5513;50.580;8.818;2023-04-25T06:21:27;9.93;;;4.77;;
10920;SDS011;5513;50.580;8.818;2023-04-25T06:23:55;8.23;;;4.57;;
10920;SDS011;5513;50.580;8.818;2023-04-25T06:26:23;9.03;;;4.80;;
10920;SDS011;5513;50.580;8.818;2023-04-25T06:28:52;7.97;;;4.40;;
10920;SDS011;5513;50.580;8.818;2023-04-25T06:31:21;7.03;;;4.47;;
10920;SDS011;5513;50.580;8.818;2023-04-25T06:33:49;9.37;;;5.03;;
10920;SDS011;5513;50.580;8.818;2023-04-25T06:36:21;11.83;;;5.30;;
10920;SDS011;5513;50.580;8.818;2023-04-25T06:38:51;10.23;;;4.70;;
10920;SDS011;5513;50.580;8.818;2023-04-25T06:41:20;10.47;;;4.93;;
10920;SDS011;5513;50.580;8.818;2023-04-25T06:43:48;10.43;;;5.30;;
10920;SDS011;5513;50.580;8.818;2023-04-25T06:46:16;10.30;;;5.73;;
10920;SDS011;5513;50.580;8.818;2023-04-25T06:48:46;7.97;;;5.30;;
10920;SDS011;5513;50.580;8.818;2023-04-25T06:51:14;6.67;;;4.50;;
10920;SDS011;5513;50.580;8.818;2023-04-25T06:53:43;6.97;;;5.00;;
10920;SDS011;5513;50.580;8.818;2023-04-25T06:56:11;9.67;;;5.07;;
10920;SDS011;5513;50.580;8.818;2023-04-25T06:58:39;8.23;;;4.97;;
10920;SDS011;5513;50.580;8.818;2023-04-25T07:01:07;10.00;;;5.00;;
10920;SDS011;5513;50.580;8.818;2023-04-25T07:03:35;7.53;;;4.90;;
10920;SDS011;5513;50.580;8.818;2023-04-25T07:06:06;7.37;;;4.93;;
10920;SDS011;5513;50.580;8.818;2023-04-25T07:08:34;7.50;;;5.37;;
10920;SDS011;5513;50.580;8.818;2023-04-25T07:11:02;8.83;;;5.10;;
10920;SDS011;5513;50.580;8.818;2023-04-25T07:13:31;11.00;;;4.60;;
10920;SDS011;5513;50.580;8.818;2023-04-25T07:15:59;10.07;;;5.50;;
10920;SDS011;5513;50.580;8.818;2023-04-25T07:18:27;8.57;;;5.50;;
10920;SDS011;5513;50.580;8.818;2023-04-25T07:20:56;7.93;;;4.63;;
10920;SDS011;5513;50.580;8.818;2023-04-25T07:23:25;11.60;;;5.17;;
10920;SDS011;5513;50.580;8.818;2023-04-25T07:25:54;7.87;;;5.00;;
10920;SDS011;5513;50.580;8.818;2023-04-25T07:28:22;7.57;;;4.47;;
10920;SDS011;5513;50.580;8.818;2023-04-25T07:30:50;6.83;;;4.63;;
10920;SDS011;5513;50.580;8.818;2023-04-25T07:33:19;9.20;;;5.07;;
10920;SDS011;5513;50.580;8.818;2023-04-25T07:35:48;9.40;;;5.00;;
10920;SDS011;5513;50.580;8.818;2023-04-25T07:38:16;9.50;;;4.90;;
10920;SDS011;5513;50.580;8.818;2023-04-25T07:40:46;7.80;;;3.70;;
10920;SDS011;5513;50.580;8.818;2023-04-25T07:43:15;6.90;;;4.23;;
10920;SDS011;5513;50.580;8.818;2023-04-25T07:45:43;7.90;;;3.83;;
10920;SDS011;5513;50.580;8.818;2023-04-25T07:48:11;5.33;;;3.40;;
10920;SDS011;5513;50.580;8.818;2023-04-25T07:50:44;6.93;;;4.10;;
10920;SDS011;5513;50.580;8.818;2023-04-25T07:53:12;5.97;;;3.70;;
10920;SDS011;5513;50.580;8.818;2023-04-25T07:55:40;9.37;;;4.00;;
10920;SDS011;5513;50.580;8.818;2023-04-25T07:58:11;5.37;;;3.70;;
10920;SDS011;5513;50.580;8.818;2023-04-25T08:00:40;6.60;;;3.47;;
10920;SDS011;5513;50.580;8.818;2023-04-25T08:03:09;5.43;;;3.67;;
10920;SDS011;5513;50.580;8.818;2023-04-25T08:05:38;6.27;;;3.17;;
10920;SDS011;5513;50.580;8.818;2023-04-25T08:08:06;6.43;;;3.40;;
10920;SDS011;5513;50.580;8.818;2023-04-25T08:10:34;8.70;;;3.77;;
10920;SDS011;5513;50.580;8.818;2023-04-25T08:13:03;8.17;;;3.30;;
10920;SDS011;5513;50.580;8.818;2023-04-25T08:15:33;6.17;;;2.90;;
10920;SDS011;5513;50.580;8.818;2023-04-25T08:18:02;5.37;;;3.07;;
10920;SDS011;5513;50.580;8.818;2023-04-25T08:20:31;5.63;;;2.97;;
10920;SDS011;5513;50.580;8.818;2023-04-25T08:22:59;5.67;;;2.90;;
10920;SDS011;5513;50.580;8.818;2023-04-25T08:25:28;4.73;;;2.50;;
10920;SDS011;5513;50.580;8.818;2023-04-25T08:27:56;4.80;;;2.83;;
10920;SDS011;5513;50.580;8.818;2023-04-25T08:30:26;5.27;;;2.70;;
10920;SDS011;5513;50.580;8.818;2023-04-25T08:32:56;4.13;;;2.97;;
10920;SDS011;5513;50.580;8.818;2023-04-25T08:35:24;4.53;;;2.90;;
10920;SDS011;5513;50.580;8.818;2023-04-25T08:37:52;4.27;;;2.80;;
10920;SDS011;5513;50.580;8.818;2023-04-25T08:40:21;5.40;;;2.90;;
10920;SDS011;5513;50.580;8.818;2023-04-25T08:42:55;6.27;;;3.17;;
10920;SDS011;5513;50.580;8.818;2023-04-25T08:45:26;5.47;;;3.33;;
10920;SDS011;5513;50.580;8.818;2023-04-25T08:47:57;6.83;;;3.30;;
10920;SDS011;5513;50.580;8.818;2023-04-25T08:50:27;5.10;;;3.57;;
10920;SDS011;5513;50.580;8.818;2023-04-25T08:52:56;6.97;;;3.23;;
10920;SDS011;5513;50.580;8.818;2023-04-25T08:55:29;5.83;;;3.40;;
10920;SDS011;5513;50.580;8.818;2023-04-25T08:57:58;6.43;;;3.47;;
10920;SDS011;5513;50.580;8.818;2023-04-25T09:00:27;7.47;;;3.20;;
10920;SDS011;5513;50.580;8.818;2023-04-25T09:02:57;5.33;;;3.10;;
10920;SDS011;5513;50.580;8.818;2023-04-25T09:05:28;4.23;;;2.63;;
10920;SDS011;5513;50.580;8.818;2023-04-25T09:07:56;4.73;;;2.23;;
10920;SDS011;5513;50.580;8.818;2023-04-25T09:10:24;3.30;;;2.50;;
10920;SDS011;5513;50.580;8.818;2023-04-25T09:13:02;3.70;;;2.10;;
10920;SDS011;5513;50.580;8.818;2023-04-25T09:15:40;3.80;;;2.20;;
10920;SDS011;5513;50.580;8.818;2023-04-25T09:18:23;6.50;;;2.30;;
10920;SDS011;5513;50.580;8.818;2023-04-25T09:20:56;3.97;;;2.30;;
10920;SDS011;5513;50.580;8.818;2023-04-25T09:23:40;3.33;;;2.13;;
10920;SDS011;5513;50.580;8.818;2023-04-25T09:26:09;3.27;;;1.90;;
10920;SDS011;5513;50.580;8.818;2023-04-25T09:28:38;5.47;;;2.10;;
10920;SDS011;5513;50.580;8.818;2023-04-25T09:31:07;4.00;;;1.97;;
10920;SDS011;5513;50.580;8.818;2023-04-25T09:33:40;2.83;;;1.87;;
10920;SDS011;5513;50.580;8.818;2023-04-25T09:36:08;3.30;;;2.10;;
10920;SDS011;5513;50.580;8.818;2023-04-25T09:38:39;4.83;;;2.00;;
10920;SDS011;5513;50.580;8.818;2023-04-25T09:41:09;6.83;;;2.20;;
10920;SDS011;5513;50.580;8.818;2023-04-25T09:43:38;5.67;;;2.30;;
10920;SDS011;5513;50.580;8.818;2023-04-25T09:46:07;8.17;;;2.40;;
10920;SDS011;5513;50.580;8.818;2023-04-25T09:48:39;7.43;;;2.57;;
10920;SDS011;5513;50.580;8.818;2023-04-25T09:51:08;8.67;;;2.20;;
10920;SDS011;5513;50.580;8.818;2023-04-25T09:53:37;5.23;;;2.00;;
10920;SDS011;5513;50.580;8.818;2023-04-25T09:56:11;5.03;;;1.97;;
10920;SDS011;5513;50.580;8.818;2023-04-25T09:58:40;4.60;;;1.80;;
10920;SDS011;5513;50.580;8.818;2023-04-25T10:01:09;3.33;;;1.63;;
10920;SDS011;5513;50.580;8.818;2023-04-25T10:03:42;6.17;;;1.90;;
10920;SDS011;5513;50.580;8.818;2023-04-25T10:06:13;5.10;;;1.80;;
10920;SDS011;5513;50.580;8.818;2023-04-25T10:08:48;5.73;;;2.47;;
10920;SDS011;5513;50.580;8.818;2023-04-25T10:11:18;6.23;;;2.03;;
10920;SDS011;5513;50.580;8.818;2023-04-25T10:13:47;6.63;;;1.90;;
10920;SDS011;5513;50.580;8.818;2023-04-25T10:16:16;6.87;;;1.93;;
10920;SDS011;5513;50.580;8.818;2023-04-25T10:18:46;6.10;;;1.90;;
10920;SDS011;5513;50.580;8.818;2023-04-25T10:21:15;5.53;;;2.10;;
10920;SDS011;5513;50.580;8.818;2023-04-25T10:23:43;3.60;;;1.80;;
10920;SDS011;5513;50.580;8.818;2023-04-25T10:26:13;4.43;;;1.70;;
10920;SDS011;5513;50.580;8.818;2023-04-25T10:28:55;5.17;;;1.90;;
10920;SDS011;5513;50.580;8.818;2023-04-25T10:31:24;5.57;;;2.00;;
10920;SDS011;5513;50.580;8.818;2023-04-25T10:33:57;5.93;;;2.37;;
10920;SDS011;5513;50.580;8.818;2023-04-25T10:36:26;6.27;;;2.03;;
10920;SDS011;5513;50.580;8.818;2023-04-25T10:39:02;6.57;;;1.90;;
10920;SDS011;5513;50.580;8.818;2023-04-25T10:41:45;4.93;;;2.03;;
10920;SDS011;5513;50.580;8.818;2023-04-25T10:44:14;8.17;;;2.30;;
10920;SDS011;5513;50.580;8.818;2023-04-25T10:46:44;3.17;;;1.97;;
10920;SDS011;5513;50.580;8.818;2023-04-25T10:52:12;4.23;;;1.80;;
10920;SDS011;5513;50.580;8.818;2023-04-25T10:54:43;5.50;;;2.07;;
10920;SDS011;5513;50.580;8.818;2023-04-25T10:57:36;4.83;;;1.97;;
10920;SDS011;5513;50.580;8.818;2023-04-25T11:00:06;6.33;;;1.93;;
10920;SDS011;5513;50.580;8.818;2023-04-25T11:02:37;6.77;;;2.53;;
10920;SDS011;5513;50.580;8.818;2023-04-25T11:05:09;6.60;;;2.27;;
10920;SDS011;5513;50.580;8.818;2023-04-25T11:07:43;4.03;;;1.80;;
10920;SDS011;5513;50.580;8.818;2023-04-25T11:10:32;5.33;;;1.83;;
10920;SDS011;5513;50.580;8.818;2023-04-25T11:13:02;4.67;;;1.87;;
10920;SDS011;5513;50.580;8.818;2023-04-25T11:15:30;6.50;;;2.07;;
10920;SDS011;5513;50.580;8.818;2023-04-25T11:17:59;5.63;;;2.10;;
10920;SDS011;5513;50.580;8.818;2023-04-25T11:20:35;4.60;;;2.20;;
10920;SDS011;5513;50.580;8.818;2023-04-25T11:23:05;6.23;;;1.97;;
10920;SDS011;5513;50.580;8.818;2023-04-25T11:25:33;8.73;;;2.47;;
10920;SDS011;5513;50.580;8.818;2023-04-25T11:28:04;7.17;;;2.33;;
10920;SDS011;5513;50.580;8.818;2023-04-25T11:30:32;6.73;;;2.00;;
10920;SDS011;5513;50.580;8.818;2023-04-25T11:33:00;4.70;;;1.90;;
10920;SDS011;5513;50.580;8.818;2023-04-25T11:35:30;6.63;;;2.03;;
10920;SDS011;5513;50.580;8.818;2023-04-25T11:38:00;6.57;;;2.13;;
10920;SDS011;5513;50.580;8.818;2023-04-25T11:40:31;7.23;;;3.07;;
10920;SDS011;5513;50.580;8.818;2023-04-25T11:43:00;6.53;;;2.23;;
10920;SDS011;5513;50.580;8.818;2023-04-25T11:45:28;5.67;;;2.20;;
10920;SDS011;5513;50.580;8.818;2023-04-25T11:47:57;10.13;;;2.40;;
10920;SDS011;5513;50.580;8.818;2023-04-25T11:50:25;6.83;;;2.27;;
10920;SDS011;5513;50.580;8.818;2023-04-25T11:52:56;6.93;;;2.40;;
10920;SDS011;5513;50.580;8.818;2023-04-25T11:55:24;7.40;;;2.30;;
10920;SDS011;5513;50.580;8.818;2023-04-25T11:57:54;4.90;;;2.07;;
10920;SDS011;5513;50.580;8.818;2023-04-25T12:00:23;5.13;;;2.10;;
10920;SDS011;5513;50.580;8.818;2023-04-25T12:02:52;9.03;;;2.27;;
10920;SDS011;5513;50.580;8.818;2023-04-25T12:05:23;6.13;;;1.93;;
10920;SDS011;5513;50.580;8.818;2023-04-25T12:08:09;5.80;;;2.07;;
10920;SDS011;5513;50.580;8.818;2023-04-25T12:10:39;5.47;;;1.87;;
10920;SDS011;5513;50.580;8.818;2023-04-25T12:13:23;6.63;;;2.20;;
10920;SDS011;5513;50.580;8.818;2023-04-25T12:15:54;4.57;;;1.97;;
10920;SDS011;5513;50.580;8.818;2023-04-25T12:18:23;5.57;;;2.10;;
10920;SDS011;5513;50.580;8.818;2023-04-25T12:20:54;8.13;;;2.90;;
10920;SDS011;5513;50.580;8.818;2023-04-25T12:23:26;3.93;;;2.00;;
10920;SDS011;5513;50.580;8.818;2023-04-25T12:25:55;9.07;;;2.57;;
10920;SDS011;5513;50.580;8.818;2023-04-25T12:28:25;6.10;;;2.30;;
10920;SDS011;5513;50.580;8.818;2023-04-25T12:30:55;8.43;;;2.40;;
10920;SDS011;5513;50.580;8.818;2023-04-25T12:33:25;8.30;;;2.40;;
10920;SDS011;5513;50.580;8.818;2023-04-25T12:35:54;7.93;;;2.70;;
10920;SDS011;5513;50.580;8.818;2023-04-25T12:38:24;8.83;;;2.50;;
10920;SDS011;5513;50.580;8.818;2023-04-25T12:40:53;7.80;;;2.47;;
10920;SDS011;5513;50.580;8.818;2023-04-25T12:43:22;5.17;;;2.50;;
10920;SDS011;5513;50.580;8.818;2023-04-25T12:45:53;6.27;;;2.17;;
10920;SDS011;5513;50.580;8.818;2023-04-25T12:48:22;4.60;;;2.27;;
10920;SDS011;5513;50.580;8.818;2023-04-25T12:50:51;4.40;;;2.30;;
10920;SDS011;5513;50.580;8.818;2023-04-25T12:53:20;6.20;;;2.10;;
10920;SDS011;5513;50.580;8.818;2023-04-25T12:55:50;7.07;;;2.40;;
10920;SDS011;5513;50.580;8.818;2023-04-25T12:58:24;7.17;;;2.70;;
10920;SDS011;5513;50.580;8.818;2023-04-25T13:00:54;4.40;;;2.20;;
10920;SDS011;5513;50.580;8.818;2023-04-25T13:03:22;5.43;;;1.90;;
10920;SDS011;5513;50.580;8.818;2023-04-25T13:05:51;5.50;;;2.30;;
10920;SDS011;5513;50.580;8.818;2023-04-25T13:08:20;7.13;;;2.20;;
10920;SDS011;5513;50.580;8.818;2023-04-25T13:10:49;10.03;;;2.30;;
10920;SDS011;5513;50.580;8.818;2023-04-25T13:13:17;6.27;;;2.27;;
10920;SDS011;5513;50.580;8.818;2023-04-25T13:15:45;4.27;;;2.10;;
10920;SDS011;5513;50.580;8.818;2023-04-25T13:18:15;6.33;;;2.53;;
10920;SDS011;5513;50.580;8.818;2023-04-25T13:20:44;5.93;;;2.47;;
10920;SDS011;5513;50.580;8.818;2023-04-25T13:23:12;4.07;;;2.07;;
10920;SDS011;5513;50.580;8.818;2023-04-25T13:25:41;5.00;;;2.20;;
10920;SDS011;5513;50.580;8.818;2023-04-25T13:28:09;8.23;;;2.30;;
10920;SDS011;5513;50.580;8.818;2023-04-25T13:30:37;5.30;;;2.20;;
10920;SDS011;5513;50.580;8.818;2023-04-25T13:33:07;4.87;;;2.00;;
10920;SDS011;5513;50.580;8.818;2023-04-25T13:35:37;3.97;;;2.17;;
10920;SDS011;5513;50.580;8.818;2023-04-25T13:38:06;4.97;;;2.20;;
10920;SDS011;5513;50.580;8.818;2023-04-25T13:40:35;5.57;;;2.07;;
10920;SDS011;5513;50.580;8.818;2023-04-25T13:43:03;5.07;;;2.57;;
10920;SDS011;5513;50.580;8.818;2023-04-25T13:45:34;3.93;;;2.23;;
10920;SDS011;5513;50.580;8.818;2023-04-25T13:48:02;6.77;;;2.40;;
10920;SDS011;5513;50.580;8.818;2023-04-25T13:50:30;5.83;;;2.20;;
10920;SDS011;5513;50.580;8.818;2023-04-25T13:53:00;7.30;;;2.13;;
10920;SDS011;5513;50.580;8.818;2023-04-25T13:55:29;4.83;;;2.03;;
10920;SDS011;5513;50.580;8.818;2023-04-25T13:57:58;4.87;;;1.93;;
10920;SDS011;5513;50.580;8.818;2023-04-25T14:00:34;7.80;;;2.40;;
10920;SDS011;5513;50.580;8.818;2023-04-25T14:03:04;6.13;;;2.10;;
10920;SDS011;5513;50.580;8.818;2023-04-25T14:05:35;6.43;;;2.20;;
10920;SDS011;5513;50.580;8.818;2023-04-25T14:08:07;8.67;;;2.30;;
10920;SDS011;5513;50.580;8.818;2023-04-25T14:10:37;6.93;;;2.10;;
10920;SDS011;5513;50.580;8.818;2023-04-25T14:13:05;5.23;;;1.70;;
10920;SDS011;5513;50.580;8.818;2023-04-25T14:15:36;8.70;;;2.37;;
10920;SDS011;5513;50.580;8.818;2023-04-25T14:18:05;7.80;;;2.23;;
10920;SDS011;5513;50.580;8.818;2023-04-25T14:20:34;5.77;;;1.87;;
10920;SDS011;5513;50.580;8.818;2023-04-25T14:23:02;5.90;;;1.83;;
10920;SDS011;5513;50.580;8.818;2023-04-25T14:25:32;6.40;;;1.90;;
10920;SDS011;5513;50.580;8.818;2023-04-25T14:28:02;5.10;;;2.00;;
10920;SDS011;5513;50.580;8.818;2023-04-25T14:30:30;5.63;;;1.97;;
10920;SDS011;5513;50.580;8.818;2023-04-25T14:32:58;5.97;;;2.07;;
10920;SDS011;5513;50.580;8.818;2023-04-25T14:35:27;3.50;;;1.70;;
10920;SDS011;5513;50.580;8.818;2023-04-25T14:37:55;7.07;;;1.97;;
10920;SDS011;5513;50.580;8.818;2023-04-25T14:40:25;4.83;;;1.43;;
10920;SDS011;5513;50.580;8.818;2023-04-25T14:42:55;3.93;;;1.60;;
10920;SDS011;5513;50.580;8.818;2023-04-25T14:45:24;4.53;;;1.50;;
10920;SDS011;5513;50.580;8.818;2023-04-25T14:47:52;5.67;;;1.90;;
10920;SDS011;5513;50.580;8.818;2023-04-25T14:50:21;4.37;;;2.20;;
10920;SDS011;5513;50.580;8.818;2023-04-25T14:52:49;4.50;;;2.10;;
10920;SDS011;5513;50.580;8.818;2023-04-25T14:55:19;5.10;;;2.07;;
10920;SDS011;5513;50.580;8.818;2023-04-25T14:57:47;5.50;;;2.00;;
10920;SDS011;5513;50.580;8.818;2023-04-25T15:00:18;4.40;;;2.00;;
10920;SDS011;5513;50.580;8.818;2023-04-25T15:02:47;7.67;;;2.13;;
10920;SDS011;5513;50.580;8.818;2023-04-25T15:05:16;3.73;;;1.70;;
10920;SDS011;5513;50.580;8.818;2023-04-25T15:07:45;4.23;;;1.60;;
10920;SDS011;5513;50.580;8.818;2023-04-25T15:10:14;3.87;;;1.80;;
10920;SDS011;5513;50.580;8.818;2023-04-25T15:12:43;3.47;;;1.80;;
10920;SDS011;5513;50.580;8.818;2023-04-25T15:15:13;5.40;;;1.37;;